sensor_id;sensor_type;location;lat;lon;timestamp;P1;durP1;ratioP1;P2;durP2;ratioP2
55493;SDS011;41355;50.390;19.096;2022-08-06T00:02:05;25.15;;;13.73;;
55493;SDS011;41355;50.390;19.096;2022-08-06T00:04:31;22.88;;;12.90;;
55493;SDS011;41355;50.390;19.096;2022-08-06T00:06:57;21.80;;;13.48;;
55493;SDS011;41355;50.390;19.096;2022-08-06T00:09:23;20.10;;;12.48;;
55493;SDS011;41355;50.390;19.096;2022-08-06T00:11:49;20.58;;;12.45;;
55493;SDS011;41355;50.390;19.096;2022-08-06T00:14:15;21.02;;;12.63;;
55493;SDS011;41355;50.390;19.096;2022-08-06T00:16:41;23.50;;;13.13;;
55493;SDS011;41355;50.390;19.096;2022-08-06T00:19:07;19.60;;;12.77;;
55493;SDS011;41355;50.390;19.096;2022-08-06T00:21:33;22.95;;;12.88;;
55493;SDS011;41355;50.390;19.096;2022-08-06T00:23:59;24.95;;;13.25;;
55493;SDS011;41355;50.390;19.096;2022-08-06T00:26:25;23.95;;;13.27;;
55493;SDS011;41355;50.390;19.096;2022-08-06T00:28:51;28.13;;;14.02;;
55493;SDS011;41355;50.390;19.096;2022-08-06T00:31:17;29.52;;;12.55;;
55493;SDS011;41355;50.390;19.096;2022-08-06T00:33:45;26.02;;;13.25;;
55493;SDS011;41355;50.390;19.096;2022-08-06T00:36:11;23.90;;;13.73;;
55493;SDS011;41355;50.390;19.096;2022-08-06T00:38:37;22.60;;;13.25;;
55493;SDS011;41355;50.390;19.096;2022-08-06T00:41:03;24.55;;;13.60;;
55493;SDS011;41355;50.390;19.096;2022-08-06T00:43:29;23.15;;;13.05;;
55493;SDS011;41355;50.390;19.096;2022-08-06T00:45:55;21.15;;;13.38;;
55493;SDS011;41355;50.390;19.096;2022-08-06T00:48:21;22.08;;;13.00;;
55493;SDS011;41355;50.390;19.096;2022-08-06T00:50:47;22.08;;;12.90;;
55493;SDS011;41355;50.390;19.096;2022-08-06T00:53:13;23.70;;;12.85;;
55493;SDS011;41355;50.390;19.096;2022-08-06T00:55:39;25.48;;;13.90;;
55493;SDS011;41355;50.390;19.096;2022-08-06T00:58:05;21.48;;;12.80;;
55493;SDS011;41355;50.390;19.096;2022-08-06T01:00:32;21.80;;;13.30;;
55493;SDS011;41355;50.390;19.096;2022-08-06T01:02:58;19.58;;;12.80;;
55493;SDS011;41355;50.390;19.096;2022-08-06T01:05:24;21.95;;;12.15;;
55493;SDS011;41355;50.390;19.096;2022-08-06T01:07:50;21.70;;;12.88;;
55493;SDS011;41355;50.390;19.096;2022-08-06T01:10:16;20.30;;;12.57;;
55493;SDS011;41355;50.390;19.096;2022-08-06T01:12:42;21.92;;;12.65;;
55493;SDS011;41355;50.390;19.096;2022-08-06T01:15:08;21.75;;;13.32;;
55493;SDS011;41355;50.390;19.096;2022-08-06T01:17:36;20.73;;;12.63;;
55493;SDS011;41355;50.390;19.096;2022-08-06T01:27:50;22.58;;;13.40;;
55493;SDS011;41355;50.390;19.096;2022-08-06T01:30:18;18.95;;;12.82;;
55493;SDS011;41355;50.390;19.096;2022-08-06T01:32:47;21.20;;;13.30;;
55493;SDS011;41355;50.390;19.096;2022-08-06T01:35:16;20.60;;;13.00;;
55493;SDS011;41355;50.390;19.096;2022-08-06T01:37:45;23.55;;;13.43;;
55493;SDS011;41355;50.390;19.096;2022-08-06T01:40:22;22.63;;;13.68;;
55493;SDS011;41355;50.390;19.096;2022-08-06T01:42:49;21.60;;;13.77;;
55493;SDS011;41355;50.390;19.096;2022-08-06T01:45:17;20.85;;;13.93;;
55493;SDS011;41355;50.390;19.096;2022-08-06T01:47:47;21.90;;;13.73;;
55493;SDS011;41355;50.390;19.096;2022-08-06T01:50:14;25.17;;;13.25;;
55493;SDS011;41355;50.390;19.096;2022-08-06T01:52:41;26.88;;;14.07;;
55493;SDS011;41355;50.390;19.096;2022-08-06T01:55:09;23.88;;;15.43;;
55493;SDS011;41355;50.390;19.096;2022-08-06T01:57:36;29.38;;;15.88;;
55493;SDS011;41355;50.390;19.096;2022-08-06T02:00:03;27.45;;;16.30;;
55493;SDS011;41355;50.390;19.096;2022-08-06T02:02:30;30.02;;;16.83;;
55493;SDS011;41355;50.390;19.096;2022-08-06T02:04:57;26.05;;;15.65;;
55493;SDS011;41355;50.390;19.096;2022-08-06T02:07:26;28.90;;;16.40;;
55493;SDS011;41355;50.390;19.096;2022-08-06T02:09:53;28.33;;;15.32;;
55493;SDS011;41355;50.390;19.096;2022-08-06T02:12:20;32.50;;;16.90;;
55493;SDS011;41355;50.390;19.096;2022-08-06T02:14:56;30.48;;;16.38;;
55493;SDS011;41355;50.390;19.096;2022-08-06T02:17:24;25.85;;;15.75;;
55493;SDS011;41355;50.390;19.096;2022-08-06T02:19:51;30.80;;;15.52;;
55493;SDS011;41355;50.390;19.096;2022-08-06T02:22:20;29.75;;;15.48;;
55493;SDS011;41355;50.390;19.096;2022-08-06T02:24:46;25.77;;;15.13;;
55493;SDS011;41355;50.390;19.096;2022-08-06T02:27:13;25.45;;;14.05;;
55493;SDS011;41355;50.390;19.096;2022-08-06T02:29:40;23.65;;;14.00;;
55493;SDS011;41355;50.390;19.096;2022-08-06T02:32:07;24.63;;;14.65;;
55493;SDS011;41355;50.390;19.096;2022-08-06T02:34:33;21.10;;;13.55;;
55493;SDS011;41355;50.390;19.096;2022-08-06T02:37:02;21.83;;;13.05;;
55493;SDS011;41355;50.390;19.096;2022-08-06T02:39:32;22.73;;;13.55;;
55493;SDS011;41355;50.390;19.096;2022-08-06T02:42:03;28.83;;;13.35;;
55493;SDS011;41355;50.390;19.096;2022-08-06T02:44:36;20.65;;;11.65;;
55493;SDS011;41355;50.390;19.096;2022-08-06T02:47:06;21.75;;;11.80;;
55493;SDS011;41355;50.390;19.096;2022-08-06T02:49:34;24.27;;;11.23;;
55493;SDS011;41355;50.390;19.096;2022-08-06T02:52:03;18.90;;;12.10;;
55493;SDS011;41355;50.390;19.096;2022-08-06T02:54:45;18.27;;;11.00;;
55493;SDS011;41355;50.390;19.096;2022-08-06T02:57:14;20.42;;;10.68;;
55493;SDS011;41355;50.390;19.096;2022-08-06T02:59:44;26.98;;;11.07;;
55493;SDS011;41355;50.390;19.096;2022-08-06T03:02:11;21.67;;;10.13;;
55493;SDS011;41355;50.390;19.096;2022-08-06T03:04:39;19.77;;;9.90;;
55493;SDS011;41355;50.390;19.096;2022-08-06T03:07:07;18.25;;;9.45;;
55493;SDS011;41355;50.390;19.096;2022-08-06T03:09:34;17.42;;;9.35;;
55493;SDS011;41355;50.390;19.096;2022-08-06T03:12:01;17.20;;;9.35;;
55493;SDS011;41355;50.390;19.096;2022-08-06T03:14:28;17.80;;;9.20;;
55493;SDS011;41355;50.390;19.096;2022-08-06T03:16:55;13.82;;;8.93;;
55493;SDS011;41355;50.390;19.096;2022-08-06T03:19:22;14.52;;;9.00;;
55493;SDS011;41355;50.390;19.096;2022-08-06T03:21:49;16.23;;;8.55;;
55493;SDS011;41355;50.390;19.096;2022-08-06T03:24:15;14.13;;;8.18;;
55493;SDS011;41355;50.390;19.096;2022-08-06T03:26:42;13.27;;;8.77;;
55493;SDS011;41355;50.390;19.096;2022-08-06T03:29:10;12.88;;;7.80;;
55493;SDS011;41355;50.390;19.096;2022-08-06T03:31:37;12.40;;;8.13;;
55493;SDS011;41355;50.390;19.096;2022-08-06T03:34:03;11.82;;;7.40;;
55493;SDS011;41355;50.390;19.096;2022-08-06T03:36:30;13.40;;;7.93;;
55493;SDS011;41355;50.390;19.096;2022-08-06T03:41:48;12.05;;;7.47;;
55493;SDS011;41355;50.390;19.096;2022-08-06T03:44:14;10.05;;;7.00;;
55493;SDS011;41355;50.390;19.096;2022-08-06T03:46:44;10.50;;;6.93;;
55493;SDS011;41355;50.390;19.096;2022-08-06T03:49:14;13.10;;;7.35;;
55493;SDS011;41355;50.390;19.096;2022-08-06T03:51:41;11.70;;;7.28;;
55493;SDS011;41355;50.390;19.096;2022-08-06T03:54:08;13.18;;;6.82;;
55493;SDS011;41355;50.390;19.096;2022-08-06T03:56:35;10.48;;;7.05;;
55493;SDS011;41355;50.390;19.096;2022-08-06T03:59:02;10.95;;;7.35;;
55493;SDS011;41355;50.390;19.096;2022-08-06T04:01:30;11.50;;;7.05;;
55493;SDS011;41355;50.390;19.096;2022-08-06T04:03:57;13.60;;;6.63;;
55493;SDS011;41355;50.390;19.096;2022-08-06T04:06:23;10.40;;;6.57;;
55493;SDS011;41355;50.390;19.096;2022-08-06T04:08:50;11.77;;;6.82;;
55493;SDS011;41355;50.390;19.096;2022-08-06T04:11:17;11.75;;;6.90;;
55493;SDS011;41355;50.390;19.096;2022-08-06T04:13:44;9.93;;;6.50;;
55493;SDS011;41355;50.390;19.096;2022-08-06T04:16:10;12.52;;;7.18;;
55493;SDS011;41355;50.390;19.096;2022-08-06T04:18:38;11.93;;;7.28;;
55493;SDS011;41355;50.390;19.096;2022-08-06T04:21:05;13.35;;;6.97;;
55493;SDS011;41355;50.390;19.096;2022-08-06T04:23:42;8.73;;;6.30;;
55493;SDS011;41355;50.390;19.096;2022-08-06T04:26:08;10.63;;;6.53;;
55493;SDS011;41355;50.390;19.096;2022-08-06T04:28:35;10.43;;;6.95;;
55493;SDS011;41355;50.390;19.096;2022-08-06T04:31:02;11.02;;;7.13;;
55493;SDS011;41355;50.390;19.096;2022-08-06T04:33:29;14.02;;;6.55;;
55493;SDS011;41355;50.390;19.096;2022-08-06T04:35:58;10.77;;;6.57;;
55493;SDS011;41355;50.390;19.096;2022-08-06T04:38:25;10.88;;;7.00;;
55493;SDS011;41355;50.390;19.096;2022-08-06T04:40:51;10.25;;;6.75;;
55493;SDS011;41355;50.390;19.096;2022-08-06T04:43:18;13.60;;;7.43;;
55493;SDS011;41355;50.390;19.096;2022-08-06T04:45:44;10.43;;;6.80;;
55493;SDS011;41355;50.390;19.096;2022-08-06T04:48:11;10.38;;;6.78;;
55493;SDS011;41355;50.390;19.096;2022-08-06T04:50:37;12.45;;;7.65;;
55493;SDS011;41355;50.390;19.096;2022-08-06T04:53:04;10.65;;;6.47;;
55493;SDS011;41355;50.390;19.096;2022-08-06T04:55:30;10.85;;;6.82;;
55493;SDS011;41355;50.390;19.096;2022-08-06T04:57:57;12.35;;;6.95;;
55493;SDS011;41355;50.390;19.096;2022-08-06T05:00:23;10.98;;;7.18;;
55493;SDS011;41355;50.390;19.096;2022-08-06T05:02:50;15.15;;;7.20;;
55493;SDS011;41355;50.390;19.096;2022-08-06T05:05:16;15.13;;;6.97;;
55493;SDS011;41355;50.390;19.096;2022-08-06T05:07:43;9.95;;;6.50;;
55493;SDS011;41355;50.390;19.096;2022-08-06T05:10:09;8.93;;;6.60;;
55493;SDS011;41355;50.390;19.096;2022-08-06T05:12:36;10.52;;;6.70;;
55493;SDS011;41355;50.390;19.096;2022-08-06T05:15:08;9.98;;;6.10;;
55493;SDS011;41355;50.390;19.096;2022-08-06T05:17:40;9.88;;;6.60;;
55493;SDS011;41355;50.390;19.096;2022-08-06T05:20:12;10.88;;;6.75;;
55493;SDS011;41355;50.390;19.096;2022-08-06T05:22:41;12.50;;;6.68;;
55493;SDS011;41355;50.390;19.096;2022-08-06T05:25:08;12.35;;;5.95;;
55493;SDS011;41355;50.390;19.096;2022-08-06T05:27:35;10.32;;;6.63;;
55493;SDS011;41355;50.390;19.096;2022-08-06T05:30:03;10.15;;;6.57;;
55493;SDS011;41355;50.390;19.096;2022-08-06T05:32:29;12.13;;;7.05;;
55493;SDS011;41355;50.390;19.096;2022-08-06T05:34:55;12.68;;;6.90;;
55493;SDS011;41355;50.390;19.096;2022-08-06T05:37:21;8.65;;;6.05;;
55493;SDS011;41355;50.390;19.096;2022-08-06T05:39:47;9.20;;;6.40;;
55493;SDS011;41355;50.390;19.096;2022-08-06T05:42:13;9.05;;;6.25;;
55493;SDS011;41355;50.390;19.096;2022-08-06T05:44:39;9.45;;;6.00;;
55493;SDS011;41355;50.390;19.096;2022-08-06T05:47:10;9.75;;;6.93;;
55493;SDS011;41355;50.390;19.096;2022-08-06T05:49:39;9.45;;;6.97;;
55493;SDS011;41355;50.390;19.096;2022-08-06T05:54:46;9.63;;;5.93;;
55493;SDS011;41355;50.390;19.096;2022-08-06T05:57:15;8.70;;;5.97;;
55493;SDS011;41355;50.390;19.096;2022-08-06T05:59:46;9.55;;;6.40;;
55493;SDS011;41355;50.390;19.096;2022-08-06T06:02:13;11.23;;;5.60;;
55493;SDS011;41355;50.390;19.096;2022-08-06T06:04:40;8.95;;;5.53;;
55493;SDS011;41355;50.390;19.096;2022-08-06T06:07:07;9.55;;;6.22;;
55493;SDS011;41355;50.390;19.096;2022-08-06T06:09:35;10.13;;;5.93;;
55493;SDS011;41355;50.390;19.096;2022-08-06T06:12:01;10.20;;;6.50;;
55493;SDS011;41355;50.390;19.096;2022-08-06T06:14:33;9.13;;;5.78;;
55493;SDS011;41355;50.390;19.096;2022-08-06T06:17:04;10.02;;;5.80;;
55493;SDS011;41355;50.390;19.096;2022-08-06T06:24:59;9.65;;;6.28;;
55493;SDS011;41355;50.390;19.096;2022-08-06T06:27:33;8.23;;;5.40;;
55493;SDS011;41355;50.390;19.096;2022-08-06T06:30:07;9.73;;;6.05;;
55493;SDS011;41355;50.390;19.096;2022-08-06T06:32:38;8.00;;;5.45;;
55493;SDS011;41355;50.390;19.096;2022-08-06T06:35:29;12.88;;;6.40;;
55493;SDS011;41355;50.390;19.096;2022-08-06T06:43:22;12.40;;;5.90;;
55493;SDS011;41355;50.390;19.096;2022-08-06T06:46:04;7.93;;;5.72;;
55493;SDS011;41355;50.390;19.096;2022-08-06T06:51:03;9.00;;;5.65;;
55493;SDS011;41355;50.390;19.096;2022-08-06T06:53:33;10.43;;;6.00;;
55493;SDS011;41355;50.390;19.096;2022-08-06T06:56:00;9.63;;;5.40;;
55493;SDS011;41355;50.390;19.096;2022-08-06T07:00:59;9.05;;;4.97;;
55493;SDS011;41355;50.390;19.096;2022-08-06T07:03:25;10.52;;;5.38;;
55493;SDS011;41355;50.390;19.096;2022-08-06T07:05:53;10.43;;;5.00;;
55493;SDS011;41355;50.390;19.096;2022-08-06T07:08:20;8.43;;;4.82;;
55493;SDS011;41355;50.390;19.096;2022-08-06T07:10:47;7.72;;;4.78;;
55493;SDS011;41355;50.390;19.096;2022-08-06T07:13:14;7.80;;;5.32;;
55493;SDS011;41355;50.390;19.096;2022-08-06T07:15:41;8.13;;;5.32;;
55493;SDS011;41355;50.390;19.096;2022-08-06T07:18:07;9.52;;;4.95;;
55493;SDS011;41355;50.390;19.096;2022-08-06T07:20:34;6.85;;;4.60;;
55493;SDS011;41355;50.390;19.096;2022-08-06T07:23:02;8.18;;;4.70;;
55493;SDS011;41355;50.390;19.096;2022-08-06T07:25:29;6.18;;;3.97;;
55493;SDS011;41355;50.390;19.096;2022-08-06T07:27:56;7.50;;;4.28;;
55493;SDS011;41355;50.390;19.096;2022-08-06T07:30:22;7.38;;;4.90;;
55493;SDS011;41355;50.390;19.096;2022-08-06T07:32:50;8.13;;;5.10;;
55493;SDS011;41355;50.390;19.096;2022-08-06T07:35:17;9.00;;;4.70;;
55493;SDS011;41355;50.390;19.096;2022-08-06T07:37:49;6.90;;;4.40;;
55493;SDS011;41355;50.390;19.096;2022-08-06T07:40:20;8.93;;;4.63;;
55493;SDS011;41355;50.390;19.096;2022-08-06T07:42:48;8.82;;;5.45;;
55493;SDS011;41355;50.390;19.096;2022-08-06T07:45:16;9.23;;;5.53;;
55493;SDS011;41355;50.390;19.096;2022-08-06T07:47:43;8.02;;;5.00;;
55493;SDS011;41355;50.390;19.096;2022-08-06T07:50:11;6.40;;;4.00;;
55493;SDS011;41355;50.390;19.096;2022-08-06T07:52:38;8.32;;;3.40;;
55493;SDS011;41355;50.390;19.096;2022-08-06T07:55:05;5.97;;;3.30;;
55493;SDS011;41355;50.390;19.096;2022-08-06T07:57:35;7.13;;;2.60;;
55493;SDS011;41355;50.390;19.096;2022-08-06T08:00:02;6.18;;;2.45;;
55493;SDS011;41355;50.390;19.096;2022-08-06T08:02:28;4.70;;;2.40;;
55493;SDS011;41355;50.390;19.096;2022-08-06T08:04:54;4.78;;;2.70;;
55493;SDS011;41355;50.390;19.096;2022-08-06T08:07:39;5.63;;;2.90;;
55493;SDS011;41355;50.390;19.096;2022-08-06T08:10:05;5.13;;;2.40;;
55493;SDS011;41355;50.390;19.096;2022-08-06T08:12:32;8.05;;;2.58;;
55493;SDS011;41355;50.390;19.096;2022-08-06T08:14:58;5.57;;;2.20;;
55493;SDS011;41355;50.390;19.096;2022-08-06T08:17:24;5.22;;;2.03;;
55493;SDS011;41355;50.390;19.096;2022-08-06T08:19:50;3.53;;;1.40;;
55493;SDS011;41355;50.390;19.096;2022-08-06T08:22:17;2.65;;;1.35;;
55493;SDS011;41355;50.390;19.096;2022-08-06T08:24:44;2.90;;;1.20;;
55493;SDS011;41355;50.390;19.096;2022-08-06T08:27:11;3.70;;;1.35;;
55493;SDS011;41355;50.390;19.096;2022-08-06T08:29:37;2.53;;;0.95;;
55493;SDS011;41355;50.390;19.096;2022-08-06T08:32:04;5.20;;;1.02;;
55493;SDS011;41355;50.390;19.096;2022-08-06T08:34:30;2.20;;;0.80;;
55493;SDS011;41355;50.390;19.096;2022-08-06T08:36:57;3.08;;;0.70;;
55493;SDS011;41355;50.390;19.096;2022-08-06T08:39:23;3.67;;;0.90;;
55493;SDS011;41355;50.390;19.096;2022-08-06T08:41:50;1.92;;;0.85;;
55493;SDS011;41355;50.390;19.096;2022-08-06T08:44:24;1.60;;;0.70;;
55493;SDS011;41355;50.390;19.096;2022-08-06T08:46:50;2.30;;;0.88;;
55493;SDS011;41355;50.390;19.096;2022-08-06T08:49:37;2.53;;;0.70;;
55493;SDS011;41355;50.390;19.096;2022-08-06T08:52:06;2.60;;;0.90;;
55493;SDS011;41355;50.390;19.096;2022-08-06T08:54:34;2.33;;;0.80;;
55493;SDS011;41355;50.390;19.096;2022-08-06T08:57:02;2.35;;;0.88;;
55493;SDS011;41355;50.390;19.096;2022-08-06T08:59:29;7.28;;;1.83;;
55493;SDS011;41355;50.390;19.096;2022-08-06T09:01:56;2.63;;;1.15;;
55493;SDS011;41355;50.390;19.096;2022-08-06T09:04:22;2.85;;;1.30;;
55493;SDS011;41355;50.390;19.096;2022-08-06T09:06:48;2.75;;;0.80;;
55493;SDS011;41355;50.390;19.096;2022-08-06T09:09:14;2.78;;;0.90;;
55493;SDS011;41355;50.390;19.096;2022-08-06T09:11:40;2.90;;;1.00;;
55493;SDS011;41355;50.390;19.096;2022-08-06T09:14:07;2.58;;;1.10;;
55493;SDS011;41355;50.390;19.096;2022-08-06T09:16:34;3.08;;;1.05;;
55493;SDS011;41355;50.390;19.096;2022-08-06T09:19:00;3.90;;;1.00;;
55493;SDS011;41355;50.390;19.096;2022-08-06T09:21:27;2.28;;;1.10;;
55493;SDS011;41355;50.390;19.096;2022-08-06T09:23:54;3.03;;;1.10;;
55493;SDS011;41355;50.390;19.096;2022-08-06T09:26:20;2.22;;;1.00;;
55493;SDS011;41355;50.390;19.096;2022-08-06T09:28:46;2.38;;;1.02;;
55493;SDS011;41355;50.390;19.096;2022-08-06T09:31:17;2.03;;;1.05;;
55493;SDS011;41355;50.390;19.096;2022-08-06T09:33:53;2.08;;;1.05;;
55493;SDS011;41355;50.390;19.096;2022-08-06T09:36:19;3.20;;;1.30;;
55493;SDS011;41355;50.390;19.096;2022-08-06T09:41:15;3.85;;;1.38;;
55493;SDS011;41355;50.390;19.096;2022-08-06T09:43:42;3.08;;;1.50;;
55493;SDS011;41355;50.390;19.096;2022-08-06T09:46:08;3.17;;;1.50;;
55493;SDS011;41355;50.390;19.096;2022-08-06T09:48:34;2.55;;;1.13;;
55493;SDS011;41355;50.390;19.096;2022-08-06T09:51:01;4.13;;;1.50;;
55493;SDS011;41355;50.390;19.096;2022-08-06T09:53:27;2.65;;;1.30;;
55493;SDS011;41355;50.390;19.096;2022-08-06T09:55:54;3.45;;;1.42;;
55493;SDS011;41355;50.390;19.096;2022-08-06T09:58:33;3.75;;;1.88;;
55493;SDS011;41355;50.390;19.096;2022-08-06T10:01:17;3.85;;;1.75;;
55493;SDS011;41355;50.390;19.096;2022-08-06T10:03:43;4.30;;;1.63;;
55493;SDS011;41355;50.390;19.096;2022-08-06T10:06:10;5.00;;;1.60;;
55493;SDS011;41355;50.390;19.096;2022-08-06T10:08:37;4.22;;;2.03;;
55493;SDS011;41355;50.390;19.096;2022-08-06T10:11:03;3.25;;;1.42;;
55493;SDS011;41355;50.390;19.096;2022-08-06T10:13:30;4.00;;;1.60;;
55493;SDS011;41355;50.390;19.096;2022-08-06T10:15:58;3.63;;;1.55;;
55493;SDS011;41355;50.390;19.096;2022-08-06T10:21:06;5.00;;;1.75;;
55493;SDS011;41355;50.390;19.096;2022-08-06T10:23:33;3.78;;;1.30;;
55493;SDS011;41355;50.390;19.096;2022-08-06T10:26:07;4.80;;;1.80;;
55493;SDS011;41355;50.390;19.096;2022-08-06T10:28:35;3.08;;;1.30;;
55493;SDS011;41355;50.390;19.096;2022-08-06T10:31:06;3.63;;;1.25;;
55493;SDS011;41355;50.390;19.096;2022-08-06T10:33:37;2.75;;;1.15;;
55493;SDS011;41355;50.390;19.096;2022-08-06T10:36:07;3.08;;;1.40;;
55493;SDS011;41355;50.390;19.096;2022-08-06T10:38:34;3.05;;;1.30;;
55493;SDS011;41355;50.390;19.096;2022-08-06T10:41:06;2.53;;;1.13;;
55493;SDS011;41355;50.390;19.096;2022-08-06T10:43:35;3.38;;;1.50;;
55493;SDS011;41355;50.390;19.096;2022-08-06T10:46:03;3.05;;;1.38;;
55493;SDS011;41355;50.390;19.096;2022-08-06T10:48:29;2.60;;;1.42;;
55493;SDS011;41355;50.390;19.096;2022-08-06T10:50:56;4.75;;;1.80;;
55493;SDS011;41355;50.390;19.096;2022-08-06T10:53:22;5.03;;;1.52;;
55493;SDS011;41355;50.390;19.096;2022-08-06T10:55:49;4.22;;;2.03;;
55493;SDS011;41355;50.390;19.096;2022-08-06T10:58:14;3.63;;;1.80;;
55493;SDS011;41355;50.390;19.096;2022-08-06T11:00:41;3.78;;;1.88;;
55493;SDS011;41355;50.390;19.096;2022-08-06T11:03:15;4.65;;;2.08;;
55493;SDS011;41355;50.390;19.096;2022-08-06T11:05:42;4.38;;;1.80;;
55493;SDS011;41355;50.390;19.096;2022-08-06T11:08:15;5.10;;;2.15;;
55493;SDS011;41355;50.390;19.096;2022-08-06T11:13:46;3.95;;;1.55;;
55493;SDS011;41355;50.390;19.096;2022-08-06T11:16:24;3.33;;;1.70;;
55493;SDS011;41355;50.390;19.096;2022-08-06T11:19:09;3.45;;;1.65;;
55493;SDS011;41355;50.390;19.096;2022-08-06T11:21:46;3.92;;;1.60;;
55493;SDS011;41355;50.390;19.096;2022-08-06T11:24:13;4.70;;;1.80;;
55493;SDS011;41355;50.390;19.096;2022-08-06T11:26:41;4.20;;;1.77;;
55493;SDS011;41355;50.390;19.096;2022-08-06T11:29:10;5.20;;;2.47;;
55493;SDS011;41355;50.390;19.096;2022-08-06T11:31:46;6.15;;;2.08;;
55493;SDS011;41355;50.390;19.096;2022-08-06T11:34:19;5.85;;;2.30;;
55493;SDS011;41355;50.390;19.096;2022-08-06T11:39:18;7.47;;;2.65;;
55493;SDS011;41355;50.390;19.096;2022-08-06T11:41:57;5.13;;;2.47;;
55493;SDS011;41355;50.390;19.096;2022-08-06T11:44:25;5.95;;;2.65;;
55493;SDS011;41355;50.390;19.096;2022-08-06T11:47:07;5.20;;;2.70;;
55493;SDS011;41355;50.390;19.096;2022-08-06T11:49:38;6.00;;;2.90;;
55493;SDS011;41355;50.390;19.096;2022-08-06T11:52:05;6.40;;;2.85;;
55493;SDS011;41355;50.390;19.096;2022-08-06T11:54:32;4.35;;;2.30;;
55493;SDS011;41355;50.390;19.096;2022-08-06T11:59:26;5.07;;;2.70;;
55493;SDS011;41355;50.390;19.096;2022-08-06T12:01:52;6.43;;;2.97;;
55493;SDS011;41355;50.390;19.096;2022-08-06T12:07:25;6.50;;;3.60;;
55493;SDS011;41355;50.390;19.096;2022-08-06T12:20:30;6.13;;;3.20;;
55493;SDS011;41355;50.390;19.096;2022-08-06T12:23:00;6.07;;;3.70;;
55493;SDS011;41355;50.390;19.096;2022-08-06T12:25:30;7.07;;;3.50;;
55493;SDS011;41355;50.390;19.096;2022-08-06T12:27:56;8.90;;;3.33;;
55493;SDS011;41355;50.390;19.096;2022-08-06T12:30:22;5.90;;;3.70;;
55493;SDS011;41355;50.390;19.096;2022-08-06T12:32:48;7.70;;;4.13;;
55493;SDS011;41355;50.390;19.096;2022-08-06T12:35:14;7.38;;;3.88;;
55493;SDS011;41355;50.390;19.096;2022-08-06T12:37:46;6.90;;;3.63;;
55493;SDS011;41355;50.390;19.096;2022-08-06T12:40:13;5.25;;;3.25;;
55493;SDS011;41355;50.390;19.096;2022-08-06T12:45:30;6.30;;;3.80;;
55493;SDS011;41355;50.390;19.096;2022-08-06T12:48:06;9.00;;;3.47;;
55493;SDS011;41355;50.390;19.096;2022-08-06T12:50:39;8.05;;;3.88;;
55493;SDS011;41355;50.390;19.096;2022-08-06T12:53:20;7.00;;;3.90;;
55493;SDS011;41355;50.390;19.096;2022-08-06T12:55:51;6.88;;;3.65;;
55493;SDS011;41355;50.390;19.096;2022-08-06T12:58:35;6.35;;;3.40;;
55493;SDS011;41355;50.390;19.096;2022-08-06T13:01:04;7.25;;;3.70;;
55493;SDS011;41355;50.390;19.096;2022-08-06T13:03:32;6.80;;;3.58;;
55493;SDS011;41355;50.390;19.096;2022-08-06T13:05:59;5.95;;;3.58;;
55493;SDS011;41355;50.390;19.096;2022-08-06T13:08:26;6.75;;;3.65;;
55493;SDS011;41355;50.390;19.096;2022-08-06T13:10:56;8.00;;;3.60;;
55493;SDS011;41355;50.390;19.096;2022-08-06T13:13:33;7.35;;;3.58;;
55493;SDS011;41355;50.390;19.096;2022-08-06T13:18:26;6.40;;;3.55;;
55493;SDS011;41355;50.390;19.096;2022-08-06T13:20:52;6.57;;;3.75;;
55493;SDS011;41355;50.390;19.096;2022-08-06T13:23:27;5.10;;;3.33;;
55493;SDS011;41355;50.390;19.096;2022-08-06T13:25:53;8.30;;;3.53;;
55493;SDS011;41355;50.390;19.096;2022-08-06T13:28:20;5.90;;;3.28;;
55493;SDS011;41355;50.390;19.096;2022-08-06T13:30:46;6.60;;;3.15;;
55493;SDS011;41355;50.390;19.096;2022-08-06T13:35:39;6.45;;;3.40;;
55493;SDS011;41355;50.390;19.096;2022-08-06T13:38:05;6.85;;;3.45;;
55493;SDS011;41355;50.390;19.096;2022-08-06T13:40:47;9.85;;;3.03;;
55493;SDS011;41355;50.390;19.096;2022-08-06T13:43:14;8.30;;;3.30;;
55493;SDS011;41355;50.390;19.096;2022-08-06T13:45:40;5.57;;;3.15;;
55493;SDS011;41355;50.390;19.096;2022-08-06T13:48:07;6.32;;;3.53;;
55493;SDS011;41355;50.390;19.096;2022-08-06T13:50:36;8.05;;;3.72;;
55493;SDS011;41355;50.390;19.096;2022-08-06T13:53:04;5.97;;;3.05;;
55493;SDS011;41355;50.390;19.096;2022-08-06T13:55:30;5.32;;;2.80;;
55493;SDS011;41355;50.390;19.096;2022-08-06T13:57:57;4.78;;;2.78;;
55493;SDS011;41355;50.390;19.096;2022-08-06T14:00:23;5.10;;;2.78;;
55493;SDS011;41355;50.390;19.096;2022-08-06T14:02:50;6.07;;;2.90;;
55493;SDS011;41355;50.390;19.096;2022-08-06T14:05:16;5.68;;;2.95;;
55493;SDS011;41355;50.390;19.096;2022-08-06T14:07:42;6.05;;;2.70;;
55493;SDS011;41355;50.390;19.096;2022-08-06T14:10:08;4.60;;;2.53;;
55493;SDS011;41355;50.390;19.096;2022-08-06T14:12:35;5.20;;;2.88;;
55493;SDS011;41355;50.390;19.096;2022-08-06T14:15:02;6.80;;;2.75;;
55493;SDS011;41355;50.390;19.096;2022-08-06T14:17:28;4.88;;;2.63;;
55493;SDS011;41355;50.390;19.096;2022-08-06T14:19:54;5.47;;;2.78;;
55493;SDS011;41355;50.390;19.096;2022-08-06T14:22:20;6.18;;;2.97;;
55493;SDS011;41355;50.390;19.096;2022-08-06T14:24:46;5.57;;;3.40;;
55493;SDS011;41355;50.390;19.096;2022-08-06T14:27:12;4.90;;;2.53;;
55493;SDS011;41355;50.390;19.096;2022-08-06T14:29:40;5.40;;;2.78;;
55493;SDS011;41355;50.390;19.096;2022-08-06T14:32:06;6.53;;;2.70;;
55493;SDS011;41355;50.390;19.096;2022-08-06T14:34:33;4.93;;;2.67;;
55493;SDS011;41355;50.390;19.096;2022-08-06T14:37:00;5.82;;;2.38;;
55493;SDS011;41355;50.390;19.096;2022-08-06T14:39:26;5.85;;;2.80;;
55493;SDS011;41355;50.390;19.096;2022-08-06T14:41:54;12.77;;;2.75;;
55493;SDS011;41355;50.390;19.096;2022-08-06T14:44:38;8.82;;;2.72;;
55493;SDS011;41355;50.390;19.096;2022-08-06T14:47:19;6.55;;;2.53;;
55493;SDS011;41355;50.390;19.096;2022-08-06T14:49:45;6.65;;;3.00;;
55493;SDS011;41355;50.390;19.096;2022-08-06T14:52:11;6.88;;;3.00;;
55493;SDS011;41355;50.390;19.096;2022-08-06T14:54:37;6.60;;;3.10;;
55493;SDS011;41355;50.390;19.096;2022-08-06T14:57:05;5.25;;;2.53;;
55493;SDS011;41355;50.390;19.096;2022-08-06T14:59:31;5.15;;;2.97;;
55493;SDS011;41355;50.390;19.096;2022-08-06T15:01:57;6.53;;;3.08;;
55493;SDS011;41355;50.390;19.096;2022-08-06T15:04:23;8.23;;;3.00;;
55493;SDS011;41355;50.390;19.096;2022-08-06T15:06:49;6.45;;;2.83;;
55493;SDS011;41355;50.390;19.096;2022-08-06T15:09:15;5.82;;;3.08;;
55493;SDS011;41355;50.390;19.096;2022-08-06T15:11:42;6.13;;;2.80;;
55493;SDS011;41355;50.390;19.096;2022-08-06T15:14:08;6.60;;;2.58;;
55493;SDS011;41355;50.390;19.096;2022-08-06T15:16:34;4.90;;;2.88;;
55493;SDS011;41355;50.390;19.096;2022-08-06T15:19:00;5.90;;;2.70;;
55493;SDS011;41355;50.390;19.096;2022-08-06T15:21:26;5.80;;;2.78;;
55493;SDS011;41355;50.390;19.096;2022-08-06T15:23:52;5.45;;;2.67;;
55493;SDS011;41355;50.390;19.096;2022-08-06T15:26:19;6.72;;;2.50;;
55493;SDS011;41355;50.390;19.096;2022-08-06T15:28:45;5.03;;;2.50;;
55493;SDS011;41355;50.390;19.096;2022-08-06T15:31:11;3.75;;;2.28;;
55493;SDS011;41355;50.390;19.096;2022-08-06T15:33:37;6.00;;;2.35;;
55493;SDS011;41355;50.390;19.096;2022-08-06T15:36:03;4.88;;;2.65;;